sensor_id;sensor_type;location;lat;lon;timestamp;P1;durP1;ratioP1;P2;durP2;ratioP2
16967;SDS011;64862;54.398;10.126;2023-04-01T00:02:02;14.95;;;7.35;;
16967;SDS011;64862;54.398;10.126;2023-04-01T00:12:06;15.48;;;6.22;;
16967;SDS011;64862;54.398;10.126;2023-04-01T00:22:08;14.23;;;5.75;;
16967;SDS011;64862;54.398;10.126;2023-04-01T00:32:13;15.95;;;6.90;;
16967;SDS011;64862;54.398;10.126;2023-04-01T00:42:15;11.35;;;6.35;;
16967;SDS011;64862;54.398;10.126;2023-04-01T00:52:21;10.57;;;5.60;;
16967;SDS011;64862;54.398;10.126;2023-04-01T01:02:25;8.32;;;4.22;;
16967;SDS011;64862;54.398;10.126;2023-04-01T01:12:29;14.88;;;4.68;;
16967;SDS011;64862;54.398;10.126;2023-04-01T01:22:39;7.97;;;4.13;;
16967;SDS011;64862;54.398;10.126;2023-04-01T01:33:01;9.25;;;4.07;;
16967;SDS011;64862;54.398;10.126;2023-04-01T01:43:24;8.00;;;3.50;;
16967;SDS011;64862;54.398;10.126;2023-04-01T01:53:28;8.35;;;3.65;;
16967;SDS011;64862;54.398;10.126;2023-04-01T02:03:33;9.45;;;3.15;;
16967;SDS011;64862;54.398;10.126;2023-04-01T02:13:39;9.07;;;3.08;;
16967;SDS011;64862;54.398;10.126;2023-04-01T02:33:51;9.07;;;1.90;;
16967;SDS011;64862;54.398;10.126;2023-04-01T02:43:56;7.82;;;1.10;;
16967;SDS011;64862;54.398;10.126;2023-04-01T02:53:59;8.15;;;1.42;;
16967;SDS011;64862;54.398;10.126;2023-04-01T03:04:04;5.05;;;1.35;;
16967;SDS011;64862;54.398;10.126;2023-04-01T03:14:06;7.47;;;1.00;;
16967;SDS011;64862;54.398;10.126;2023-04-01T03:24:12;8.65;;;1.30;;
16967;SDS011;64862;54.398;10.126;2023-04-01T03:34:14;7.28;;;1.90;;
16967;SDS011;64862;54.398;10.126;2023-04-01T03:44:18;9.63;;;1.60;;
16967;SDS011;64862;54.398;10.126;2023-04-01T03:54:24;5.93;;;1.40;;
16967;SDS011;64862;54.398;10.126;2023-04-01T04:04:28;6.00;;;1.15;;
16967;SDS011;64862;54.398;10.126;2023-04-01T04:14:31;4.15;;;1.00;;
16967;SDS011;64862;54.398;10.126;2023-04-01T04:24:36;4.85;;;1.10;;
16967;SDS011;64862;54.398;10.126;2023-04-01T04:34:45;3.83;;;1.15;;
16967;SDS011;64862;54.398;10.126;2023-04-01T04:44:49;5.20;;;1.75;;
16967;SDS011;64862;54.398;10.126;2023-04-01T04:54:51;2.78;;;1.23;;
16967;SDS011;64862;54.398;10.126;2023-04-01T05:04:55;4.90;;;1.48;;
16967;SDS011;64862;54.398;10.126;2023-04-01T05:14:58;7.20;;;1.60;;
16967;SDS011;64862;54.398;10.126;2023-04-01T05:25:03;8.90;;;1.80;;
16967;SDS011;64862;54.398;10.126;2023-04-01T05:35:06;7.07;;;2.17;;
16967;SDS011;64862;54.398;10.126;2023-04-01T05:45:11;4.07;;;1.77;;
16967;SDS011;64862;54.398;10.126;2023-04-01T05:55:35;10.27;;;2.63;;
16967;SDS011;64862;54.398;10.126;2023-04-01T06:05:41;7.03;;;1.60;;
16967;SDS011;64862;54.398;10.126;2023-04-01T06:15:47;11.23;;;1.60;;
16967;SDS011;64862;54.398;10.126;2023-04-01T06:36:26;7.43;;;2.42;;
16967;SDS011;64862;54.398;10.126;2023-04-01T06:46:44;7.40;;;2.33;;
16967;SDS011;64862;54.398;10.126;2023-04-01T06:57:09;10.20;;;2.15;;
16967;SDS011;64862;54.398;10.126;2023-04-01T07:07:26;11.50;;;2.47;;
16967;SDS011;64862;54.398;10.126;2023-04-01T07:17:38;5.68;;;2.22;;
16967;SDS011;64862;54.398;10.126;2023-04-01T07:27:44;13.27;;;2.78;;
16967;SDS011;64862;54.398;10.126;2023-04-01T07:37:53;7.05;;;2.45;;
16967;SDS011;64862;54.398;10.126;2023-04-01T07:58:32;7.35;;;2.75;;
16967;SDS011;64862;54.398;10.126;2023-04-01T08:08:50;17.25;;;3.80;;
16967;SDS011;64862;54.398;10.126;2023-04-01T08:19:09;8.85;;;3.65;;
16967;SDS011;64862;54.398;10.126;2023-04-01T08:29:30;14.88;;;4.57;;
16967;SDS011;64862;54.398;10.126;2023-04-01T08:39:39;14.35;;;5.25;;
16967;SDS011;64862;54.398;10.126;2023-04-01T08:49:51;18.27;;;5.80;;
16967;SDS011;64862;54.398;10.126;2023-04-01T09:00:24;18.30;;;5.80;;
16967;SDS011;64862;54.398;10.126;2023-04-01T09:10:56;19.23;;;6.68;;
16967;SDS011;64862;54.398;10.126;2023-04-01T09:21:31;19.42;;;7.22;;
16967;SDS011;64862;54.398;10.126;2023-04-01T09:31:53;19.83;;;6.03;;
16967;SDS011;64862;54.398;10.126;2023-04-01T09:42:45;15.98;;;5.75;;
16967;SDS011;64862;54.398;10.126;2023-04-01T10:14:05;23.63;;;6.55;;
16967;SDS011;64862;54.398;10.126;2023-04-01T10:24:51;22.73;;;6.32;;
16967;SDS011;64862;54.398;10.126;2023-04-01T10:56:34;18.13;;;6.25;;
16967;SDS011;64862;54.398;10.126;2023-04-01T11:28:27;17.88;;;4.32;;
16967;SDS011;64862;54.398;10.126;2023-04-01T11:38:58;8.32;;;2.95;;
16967;SDS011;64862;54.398;10.126;2023-04-01T11:49:36;16.17;;;3.85;;
16967;SDS011;64862;54.398;10.126;2023-04-01T12:00:02;16.48;;;3.90;;
16967;SDS011;64862;54.398;10.126;2023-04-01T12:10:33;9.20;;;2.78;;
16967;SDS011;64862;54.398;10.126;2023-04-01T12:20:45;12.30;;;2.87;;
16967;SDS011;64862;54.398;10.126;2023-04-01T12:30:55;11.43;;;2.65;;
16967;SDS011;64862;54.398;10.126;2023-04-01T12:41:13;10.18;;;3.08;;
16967;SDS011;64862;54.398;10.126;2023-04-01T13:02:17;11.95;;;2.97;;
16967;SDS011;64862;54.398;10.126;2023-04-01T13:12:29;11.18;;;2.30;;
16967;SDS011;64862;54.398;10.126;2023-04-01T13:22:51;13.27;;;2.70;;
16967;SDS011;64862;54.398;10.126;2023-04-01T13:33:07;11.07;;;2.67;;
16967;SDS011;64862;54.398;10.126;2023-04-01T13:43:21;8.13;;;2.15;;
16967;SDS011;64862;54.398;10.126;2023-04-01T13:53:34;14.27;;;3.03;;
16967;SDS011;64862;54.398;10.126;2023-04-01T14:04:07;12.73;;;2.55;;
16967;SDS011;64862;54.398;10.126;2023-04-01T14:14:31;14.10;;;2.30;;
16967;SDS011;64862;54.398;10.126;2023-04-01T14:24:49;9.37;;;2.10;;
16967;SDS011;64862;54.398;10.126;2023-04-01T14:35:11;14.27;;;2.47;;
16967;SDS011;64862;54.398;10.126;2023-04-01T14:55:50;6.45;;;1.80;;
16967;SDS011;64862;54.398;10.126;2023-04-01T15:05:55;9.63;;;2.53;;
16967;SDS011;64862;54.398;10.126;2023-04-01T15:16:13;10.23;;;2.35;;
16967;SDS011;64862;54.398;10.126;2023-04-01T15:36:56;8.50;;;1.95;;
16967;SDS011;64862;54.398;10.126;2023-04-01T15:47:02;12.75;;;2.20;;
16967;SDS011;64862;54.398;10.126;2023-04-01T15:57:28;10.55;;;2.40;;
16967;SDS011;64862;54.398;10.126;2023-04-01T16:07:42;6.97;;;1.50;;
16967;SDS011;64862;54.398;10.126;2023-04-01T16:18:06;8.52;;;1.90;;
16967;SDS011;64862;54.398;10.126;2023-04-01T16:28:23;7.32;;;1.38;;
16967;SDS011;64862;54.398;10.126;2023-04-01T16:38:34;11.82;;;3.30;;
16967;SDS011;64862;54.398;10.126;2023-04-01T16:48:49;7.68;;;1.73;;
16967;SDS011;64862;54.398;10.126;2023-04-01T16:59:03;6.73;;;1.70;;
16967;SDS011;64862;54.398;10.126;2023-04-01T17:09:21;8.88;;;1.17;;
16967;SDS011;64862;54.398;10.126;2023-04-01T17:19:34;5.55;;;1.20;;
16967;SDS011;64862;54.398;10.126;2023-04-01T17:30:05;9.13;;;1.25;;
16967;SDS011;64862;54.398;10.126;2023-04-01T17:50:50;6.30;;;1.40;;
16967;SDS011;64862;54.398;10.126;2023-04-01T18:11:39;7.88;;;1.48;;
16967;SDS011;64862;54.398;10.126;2023-04-01T18:21:59;6.25;;;1.50;;
16967;SDS011;64862;54.398;10.126;2023-04-01T18:32:10;13.57;;;2.00;;
16967;SDS011;64862;54.398;10.126;2023-04-01T18:42:23;10.70;;;1.60;;
16967;SDS011;64862;54.398;10.126;2023-04-01T18:52:34;7.57;;;1.42;;
16967;SDS011;64862;54.398;10.126;2023-04-01T19:02:41;10.13;;;1.88;;
16967;SDS011;64862;54.398;10.126;2023-04-01T19:12:51;40.58;;;10.00;;
16967;SDS011;64862;54.398;10.126;2023-04-01T19:33:33;11.23;;;1.80;;
16967;SDS011;64862;54.398;10.126;2023-04-01T19:43:52;6.25;;;1.20;;
16967;SDS011;64862;54.398;10.126;2023-04-01T19:54:02;8.88;;;1.60;;
16967;SDS011;64862;54.398;10.126;2023-04-01T20:04:14;10.45;;;1.50;;
16967;SDS011;64862;54.398;10.126;2023-04-01T20:14:24;6.30;;;1.33;;
16967;SDS011;64862;54.398;10.126;2023-04-01T20:24:41;10.15;;;1.70;;
16967;SDS011;64862;54.398;10.126;2023-04-01T20:34:49;8.23;;;1.52;;
16967;SDS011;64862;54.398;10.126;2023-04-01T20:45:06;6.10;;;1.05;;
16967;SDS011;64862;54.398;10.126;2023-04-01T20:55:27;10.30;;;1.45;;
16967;SDS011;64862;54.398;10.126;2023-04-01T21:16:33;8.18;;;2.05;;
16967;SDS011;64862;54.398;10.126;2023-04-01T21:26:46;9.68;;;1.50;;
16967;SDS011;64862;54.398;10.126;2023-04-01T21:36:59;7.90;;;1.55;;
16967;SDS011;64862;54.398;10.126;2023-04-01T22:08:38;5.32;;;1.05;;
16967;SDS011;64862;54.398;10.126;2023-04-01T22:18:50;6.40;;;0.98;;
16967;SDS011;64862;54.398;10.126;2023-04-01T22:29:00;7.72;;;1.50;;
16967;SDS011;64862;54.398;10.126;2023-04-01T22:39:15;6.22;;;1.10;;
16967;SDS011;64862;54.398;10.126;2023-04-01T22:49:35;8.48;;;1.40;;
16967;SDS011;64862;54.398;10.126;2023-04-01T22:59:45;5.85;;;0.98;;
16967;SDS011;64862;54.398;10.126;2023-04-01T23:09:51;6.47;;;1.00;;
16967;SDS011;64862;54.398;10.126;2023-04-01T23:20:02;7.75;;;0.88;;
16967;SDS011;64862;54.398;10.126;2023-04-01T23:40:52;5.03;;;0.90;;
16967;SDS011;64862;54.398;10.126;2023-04-01T23:50:56;4.60;;;1.00;;
